Ana Sayfa
METAR-TAF:

METAR-TAF

Havaalanları :

Vientiane, Laos

Enlem: 17-57N, Boylam: 102-34E, yükseklik: 171 m

Güncel hava durumu gözlemi

Rapor saat 03:30 UTC de 44 dakika önce yapıldı.
Rüzgar doğu/güneydoğudan 2 kt
Sıcaklık 31°C
Nem 75%
Basınç 1008 hPa
Görüş mesafesi: 7000 m
2000 ft yükseklikte parçalı bulutlu
5000 ft yükseklikte parçalı çok bulutlu

METAR: VLVT 210330Z 12002KT 7000 SCT020 BKN050 31/26 Q1008 NOSIG

Saat: 11:14 (04:14 UTC)

Tahmin

Rapor saat 23:00 UTC de 5 saat ve 14 dakika önce yapıldı.
Ayın 21'si saat 00 UTC'den ayın 21'si saat 24 UTC'ye kadar geçerli Tahmin
Rüzgar güneybatıdan 4 kt
Görüş mesafesi: 7000 m
1300 ft yükseklikte parçalı bulutlu
4000 ft yükseklikte parçalı çok bulutlu
8300 ft yükseklikte parçalı çok bulutlu

TAF: VLVT 202300Z 2100/2124 22004KT 7000 SCT013 BKN040 BKN083

4.000'den fazla havaalanı için hava durumu gözlemleri ve tahminleri (METAR ve TAF raporları).

Kullanılabilir istasyonlar harita üzerinde sarı ve kırmızı noktalarla gösterilir.

İstasyonun adını görmek için fareyi noktanın üzerinde gezdirin.

Sonrasında hava gözlem ve tahminlerini görmek için tıklayın.

Haritayı değiştirmek için: yaklaştırmak için siyah artı işaretli yeşil düğmeye ve uzaklaştırmak için de eksi işaretli düğmeye hızla tıklayın; bitişik haritalar için yeşil okları kullanın.


METAR-TAF: